createdAt,value
2022-08-26T00:04:07.967Z,56.50
2022-08-26T00:09:09.271Z,56.61
2022-08-26T00:14:11.033Z,56.90
2022-08-26T00:19:12.090Z,56.65
2022-08-26T00:24:14.581Z,56.45
2022-08-26T00:29:16.062Z,56.32
2022-08-26T00:34:19.239Z,56.84
2022-08-26T00:39:20.625Z,57.19
2022-08-26T00:44:21.730Z,57.03
2022-08-26T00:49:35.017Z,57.60
2022-08-26T00:54:40.417Z,57.64
2022-08-26T00:59:52.273Z,57.85
2022-08-26T01:04:58.305Z,58.20
2022-08-26T01:10:01.440Z,58.35
2022-08-26T01:15:02.865Z,58.78
2022-08-26T01:20:31.477Z,58.87
2022-08-26T01:25:38.334Z,59.11
2022-08-26T01:30:41.381Z,59.58
2022-08-26T01:35:44.154Z,60.04
2022-08-26T01:40:46.260Z,60.62
2022-08-26T01:45:48.658Z,61.05
2022-08-26T01:50:51.249Z,61.66
2022-08-26T01:55:56.400Z,61.52
2022-08-26T02:00:58.128Z,61.87
2022-08-26T02:06:03.735Z,61.93
2022-08-26T02:11:06.020Z,61.44
2022-08-26T02:16:08.498Z,61.70
2022-08-26T02:21:11.313Z,61.06
2022-08-26T02:26:18.057Z,62.00
2022-08-26T02:31:20.247Z,62.71
2022-08-26T02:36:28.450Z,63.08
2022-08-26T02:41:29.853Z,62.65
2022-08-26T02:46:33.967Z,61.58
2022-08-26T02:51:35.687Z,60.82
2022-08-26T02:56:36.647Z,59.85
2022-08-26T03:01:39.737Z,59.79
2022-08-26T03:06:41.622Z,59.59
2022-08-26T03:11:42.621Z,58.28
2022-08-26T03:16:44.611Z,57.58
2022-08-26T03:21:51.611Z,57.06
2022-08-26T03:26:53.295Z,57.27
2022-08-26T03:31:54.678Z,57.23
2022-08-26T03:36:55.531Z,57.68
2022-08-26T03:41:58.247Z,59.03
2022-08-26T03:46:59.107Z,60.15
2022-08-26T03:52:00.020Z,60.90
2022-08-26T03:57:01.333Z,62.41
2022-08-26T04:02:02.337Z,63.80
2022-08-26T04:07:03.529Z,64.70
2022-08-26T04:12:05.265Z,67.42
2022-08-26T04:17:06.128Z,68.74
2022-08-26T04:22:07.774Z,70.36
2022-08-26T04:27:09.658Z,72.46
2022-08-26T04:32:10.493Z,74.41
2022-08-26T04:37:12.506Z,76.13
2022-08-26T04:42:14.934Z,77.53
2022-08-26T04:47:16.011Z,78.80
2022-08-26T04:52:17.108Z,80.79
2022-08-26T04:57:17.911Z,81.54
2022-08-26T05:02:18.800Z,82.34
2022-08-26T05:07:19.929Z,83.38
2022-08-26T05:12:20.870Z,85.96
2022-08-26T05:17:22.248Z,87.62
2022-08-26T05:22:23.146Z,89.52
2022-08-26T05:27:23.943Z,90.45
2022-08-26T05:32:24.995Z,90.82
2022-08-26T05:37:25.844Z,90.67
2022-08-26T05:42:27.244Z,89.44
2022-08-26T05:47:29.230Z,88.83
2022-08-26T05:52:31.724Z,87.47
2022-08-26T05:57:33.902Z,86.68
2022-08-26T06:02:38.291Z,86.23
2022-08-26T06:07:57.757Z,85.58
2022-08-26T06:13:09.198Z,84.69
2022-08-26T06:18:14.531Z,84.16
2022-08-26T06:23:34.748Z,82.62
2022-08-26T06:28:35.643Z,81.74
2022-08-26T06:33:37.978Z,82.92
2022-08-26T06:38:41.125Z,81.90
2022-08-26T06:43:43.064Z,80.14
2022-08-26T06:48:44.223Z,78.85
2022-08-26T06:53:47.416Z,77.17
2022-08-26T06:58:49.753Z,77.24
2022-08-26T07:03:52.533Z,77.27
2022-08-26T07:09:03.383Z,78.63
2022-08-26T07:14:05.357Z,77.59
2022-08-26T07:19:11.223Z,77.29
2022-08-26T07:24:12.512Z,76.14
2022-08-26T07:29:14.145Z,75.83
2022-08-26T07:34:16.387Z,75.68
2022-08-26T07:39:19.291Z,75.13
2022-08-26T07:44:21.198Z,75.06
2022-08-26T07:49:23.710Z,74.02
2022-08-26T07:54:26.814Z,74.03
2022-08-26T07:59:28.100Z,74.53
2022-08-26T08:04:31.843Z,73.32
2022-08-26T08:09:32.735Z,72.99
2022-08-26T08:14:35.732Z,71.28
2022-08-26T08:19:39.190Z,69.92
2022-08-26T08:24:40.222Z,68.91
2022-08-26T08:29:41.072Z,68.78
2022-08-26T08:39:42.777Z,69.50
2022-08-26T08:44:52.262Z,69.13
2022-08-26T08:49:59.345Z,67.05
2022-08-26T08:55:01.827Z,65.78
2022-08-26T09:00:13.316Z,64.59
2022-08-26T09:05:27.740Z,63.82
2022-08-26T09:10:36.371Z,63.25
2022-08-26T09:16:19.210Z,62.01
2022-08-26T09:21:22.902Z,60.34
2022-08-26T09:26:44.570Z,59.43
2022-08-26T09:31:45.733Z,58.37
2022-08-26T09:36:48.861Z,57.35
2022-08-26T09:42:20.078Z,55.19
2022-08-26T09:47:25.894Z,55.66
2022-08-26T09:52:27.062Z,55.52
2022-08-26T09:57:32.441Z,53.64
2022-08-26T10:02:40.798Z,52.43
2022-08-26T10:07:50.445Z,50.90
2022-08-26T10:13:05.966Z,49.48
2022-08-26T10:18:23.876Z,48.62
2022-08-26T10:23:28.606Z,48.40
2022-08-26T10:28:45.664Z,47.51
2022-08-26T10:33:46.599Z,47.10
2022-08-26T10:38:47.990Z,45.40
2022-08-26T10:43:56.177Z,44.94
2022-08-26T10:49:04.559Z,43.36
2022-08-26T10:54:19.067Z,43.92
2022-08-26T11:00:28.905Z,42.73
2022-08-26T11:05:29.948Z,41.81
2022-08-26T11:11:04.387Z,41.30
2022-08-26T11:16:07.485Z,41.67
2022-08-26T11:23:50.332Z,40.12
2022-08-26T11:28:52.549Z,41.41
2022-08-26T11:33:59.488Z,42.32
2022-08-26T11:39:20.592Z,42.21
2022-08-26T11:44:23.520Z,41.40
2022-08-26T11:49:28.204Z,41.83
2022-08-26T11:54:35.718Z,41.61
2022-08-26T11:59:40.035Z,40.93
2022-08-26T12:04:48.866Z,41.22
2022-08-26T12:09:54.416Z,41.49
2022-08-26T12:15:18.357Z,40.55
2022-08-26T12:20:47.412Z,42.15
2022-08-26T12:25:51.165Z,41.95
2022-08-26T12:31:04.366Z,42.00
2022-08-26T12:36:06.038Z,41.53
2022-08-26T12:41:06.990Z,41.30
2022-08-26T12:46:15.553Z,40.50
2022-08-26T12:51:24.900Z,40.97
2022-08-26T12:57:08.048Z,41.66
2022-08-26T13:02:09.594Z,41.38
2022-08-26T13:07:28.732Z,42.38
2022-08-26T13:12:32.769Z,43.44
2022-08-26T13:17:35.114Z,43.17
2022-08-26T13:22:36.678Z,44.05
2022-08-26T13:27:38.181Z,42.76
2022-08-26T13:32:39.060Z,42.18
2022-08-26T13:37:40.008Z,43.18
2022-08-26T13:42:49.486Z,44.01
2022-08-26T13:47:51.247Z,44.08
2022-08-26T13:52:52.751Z,43.88
2022-08-26T13:57:55.004Z,46.18
2022-08-26T14:02:56.023Z,48.23
2022-08-26T14:07:57.269Z,49.72
2022-08-26T14:12:58.848Z,51.14
2022-08-26T14:18:02.302Z,51.62
2022-08-26T14:23:13.655Z,52.50
2022-08-26T14:28:15.727Z,53.43
2022-08-26T14:33:19.372Z,54.42
2022-08-26T14:38:20.662Z,54.93
2022-08-26T14:43:21.556Z,55.41
2022-08-26T14:48:22.473Z,56.27
2022-08-26T14:53:41.465Z,56.80
2022-08-26T14:58:43.233Z,57.62
2022-08-26T15:03:44.321Z,59.09
2022-08-26T15:08:45.187Z,59.98
2022-08-26T15:13:46.569Z,60.85
2022-08-26T15:18:48.587Z,61.28
2022-08-26T15:23:51.655Z,61.24
2022-08-26T15:28:52.695Z,61.54
2022-08-26T15:33:55.619Z,62.46
2022-08-26T15:38:59.219Z,62.81
2022-08-26T15:44:01.192Z,62.86
2022-08-26T15:49:05.338Z,63.78
2022-08-26T15:54:10.276Z,65.16
2022-08-26T15:59:11.645Z,65.90
2022-08-26T16:04:13.818Z,66.90
2022-08-26T16:09:15.421Z,67.21
2022-08-26T16:14:16.310Z,67.61
2022-08-26T16:19:17.599Z,69.10
2022-08-26T16:24:27.118Z,69.56
2022-08-26T16:29:31.825Z,70.75
2022-08-26T16:34:32.654Z,70.54
2022-08-26T16:39:33.514Z,71.52
2022-08-26T16:44:43.814Z,71.99
2022-08-26T16:49:45.932Z,72.42
2022-08-26T16:54:46.822Z,72.08
2022-08-26T16:59:47.892Z,73.09
2022-08-26T17:04:50.224Z,73.58
2022-08-26T17:09:51.349Z,73.85
2022-08-26T17:14:52.132Z,74.59
2022-08-26T17:19:53.407Z,74.71
2022-08-26T17:24:54.215Z,74.66
2022-08-26T17:29:55.547Z,75.54
2022-08-26T17:34:57.074Z,75.14
2022-08-26T17:39:58.025Z,75.25
2022-08-26T17:44:59.055Z,75.85
2022-08-26T17:50:03.784Z,76.39
2022-08-26T17:55:06.392Z,76.54
2022-08-26T18:00:11.998Z,77.58
2022-08-26T18:05:14.713Z,77.90
2022-08-26T18:10:16.952Z,79.02
2022-08-26T18:15:18.335Z,78.75
2022-08-26T18:20:19.726Z,77.78
2022-08-26T18:25:20.824Z,78.30
2022-08-26T18:30:21.993Z,79.16
2022-08-26T18:35:27.523Z,79.33
2022-08-26T18:40:28.433Z,79.72
2022-08-26T18:45:29.609Z,80.62
2022-08-26T18:50:30.469Z,80.72
2022-08-26T18:55:31.498Z,80.76
2022-08-26T19:00:32.495Z,81.27
2022-08-26T19:05:39.561Z,82.22
2022-08-26T19:10:40.799Z,82.72
2022-08-26T19:15:43.750Z,82.77
2022-08-26T19:20:46.857Z,83.56
2022-08-26T19:25:51.370Z,83.41
2022-08-26T19:30:53.247Z,83.77
2022-08-26T19:35:54.938Z,83.23
2022-08-26T19:40:55.821Z,84.17
2022-08-26T19:45:56.942Z,84.23
2022-08-26T19:50:58.478Z,84.45
2022-08-26T19:55:59.399Z,84.49
2022-08-26T20:01:00.407Z,84.82
2022-08-26T20:06:07.497Z,84.95
2022-08-26T20:11:11.745Z,86.25
2022-08-26T20:16:14.725Z,86.95
2022-08-26T20:21:28.386Z,87.28
2022-08-26T20:26:33.958Z,88.37
2022-08-26T20:31:35.540Z,88.54
2022-08-26T20:36:38.282Z,88.90
2022-08-26T20:41:39.892Z,90.23
2022-08-26T20:46:40.763Z,90.81
2022-08-26T20:51:44.727Z,90.75
2022-08-26T20:56:46.658Z,90.11
2022-08-26T21:01:48.375Z,89.73
2022-08-26T21:06:52.814Z,89.93
2022-08-26T21:11:54.427Z,89.45
2022-08-26T21:16:55.306Z,89.95
2022-08-26T21:21:56.136Z,88.67
2022-08-26T21:26:57.468Z,89.28
2022-08-26T21:31:58.592Z,90.39
2022-08-26T21:36:59.771Z,90.19
2022-08-26T21:42:00.960Z,90.91
2022-08-26T21:47:04.078Z,91.19
2022-08-26T21:52:05.433Z,92.49
2022-08-26T21:57:06.555Z,91.96
2022-08-26T22:02:07.610Z,92.84
2022-08-26T22:07:08.516Z,92.32
2022-08-26T22:12:11.194Z,92.46
2022-08-26T22:17:12.303Z,92.37
2022-08-26T22:22:14.049Z,92.82
2022-08-26T22:27:14.876Z,92.57
2022-08-26T22:32:17.824Z,91.69
2022-08-26T22:37:18.625Z,92.58
2022-08-26T22:42:19.515Z,92.18
2022-08-26T22:47:20.375Z,93.12
2022-08-26T22:52:21.242Z,93.78
2022-08-26T22:57:22.094Z,93.70
2022-08-26T23:02:23.499Z,93.78
2022-08-26T23:07:24.373Z,92.95
2022-08-26T23:12:27.037Z,93.09
2022-08-26T23:17:27.865Z,93.51
2022-08-26T23:22:28.724Z,93.73
2022-08-26T23:27:29.585Z,94.32
2022-08-26T23:32:30.730Z,93.97
2022-08-26T23:37:38.187Z,94.32
2022-08-26T23:42:41.464Z,94.45
2022-08-26T23:47:42.303Z,93.24
2022-08-26T23:53:01.509Z,93.55
2022-08-26T23:58:03.001Z,93.69
